sensor_id;sensor_type;location;lat;lon;timestamp;temperature;humidity
12847;DHT22;6492;48.128;8.320;2023-03-04T00:02:41;-3.20;69.80
12847;DHT22;6492;48.128;8.320;2023-03-04T00:06:43;-3.30;70.00
12847;DHT22;6492;48.128;8.320;2023-03-04T00:10:45;-3.30;70.10
12847;DHT22;6492;48.128;8.320;2023-03-04T00:14:49;-3.30;70.30
12847;DHT22;6492;48.128;8.320;2023-03-04T00:18:50;-3.30;70.40
12847;DHT22;6492;48.128;8.320;2023-03-04T00:22:52;-3.40;69.90
12847;DHT22;6492;48.128;8.320;2023-03-04T00:26:54;-3.50;69.90
12847;DHT22;6492;48.128;8.320;2023-03-04T00:30:57;-3.50;70.40
12847;DHT22;6492;48.128;8.320;2023-03-04T00:34:59;-3.40;70.60
12847;DHT22;6492;48.128;8.320;2023-03-04T00:39:01;-3.40;70.60
12847;DHT22;6492;48.128;8.320;2023-03-04T00:43:02;-3.40;70.80
12847;DHT22;6492;48.128;8.320;2023-03-04T00:47:06;-3.30;71.30
12847;DHT22;6492;48.128;8.320;2023-03-04T00:51:07;-3.30;71.30
12847;DHT22;6492;48.128;8.320;2023-03-04T00:55:09;-3.30;71.30
12847;DHT22;6492;48.128;8.320;2023-03-04T00:59:11;-3.30;71.70
12847;DHT22;6492;48.128;8.320;2023-03-04T01:03:14;-3.20;71.90
12847;DHT22;6492;48.128;8.320;2023-03-04T01:07:16;-3.10;72.20
12847;DHT22;6492;48.128;8.320;2023-03-04T01:11:17;-3.10;72.40
12847;DHT22;6492;48.128;8.320;2023-03-04T01:15:19;-3.10;72.40
12847;DHT22;6492;48.128;8.320;2023-03-04T01:19:22;-3.10;72.40
12847;DHT22;6492;48.128;8.320;2023-03-04T01:23:24;-2.90;72.90
12847;DHT22;6492;48.128;8.320;2023-03-04T01:27:26;-2.80;72.90
12847;DHT22;6492;48.128;8.320;2023-03-04T01:31:28;-2.80;73.10
12847;DHT22;6492;48.128;8.320;2023-03-04T01:35:31;-2.70;73.30
12847;DHT22;6492;48.128;8.320;2023-03-04T01:39:33;-2.80;73.10
12847;DHT22;6492;48.128;8.320;2023-03-04T01:43:35;-2.80;73.10
12847;DHT22;6492;48.128;8.320;2023-03-04T01:47:37;-2.80;73.00
12847;DHT22;6492;48.128;8.320;2023-03-04T01:51:41;-2.80;73.10
12847;DHT22;6492;48.128;8.320;2023-03-04T01:55:44;-2.90;73.00
12847;DHT22;6492;48.128;8.320;2023-03-04T01:59:46;-2.90;73.00
12847;DHT22;6492;48.128;8.320;2023-03-04T02:03:48;-3.00;72.80
12847;DHT22;6492;48.128;8.320;2023-03-04T02:07:52;-3.20;72.20
12847;DHT22;6492;48.128;8.320;2023-03-04T02:11:55;-3.40;71.80
12847;DHT22;6492;48.128;8.320;2023-03-04T02:15:57;-3.40;71.90
12847;DHT22;6492;48.128;8.320;2023-03-04T02:20:05;-3.30;72.30
12847;DHT22;6492;48.128;8.320;2023-03-04T02:24:14;-3.30;72.60
12847;DHT22;6492;48.128;8.320;2023-03-04T02:28:19;-3.20;72.90
12847;DHT22;6492;48.128;8.320;2023-03-04T02:32:21;-3.20;72.90
12847;DHT22;6492;48.128;8.320;2023-03-04T02:36:23;-3.30;72.70
12847;DHT22;6492;48.128;8.320;2023-03-04T02:40:27;-3.40;72.50
12847;DHT22;6492;48.128;8.320;2023-03-04T02:44:33;-3.50;72.30
12847;DHT22;6492;48.128;8.320;2023-03-04T02:48:35;-3.60;72.10
12847;DHT22;6492;48.128;8.320;2023-03-04T02:52:36;-3.70;72.00
12847;DHT22;6492;48.128;8.320;2023-03-04T02:56:44;-3.70;71.90
12847;DHT22;6492;48.128;8.320;2023-03-04T03:00:47;-3.80;71.70
12847;DHT22;6492;48.128;8.320;2023-03-04T03:04:49;-3.80;72.10
12847;DHT22;6492;48.128;8.320;2023-03-04T03:08:50;-3.70;72.30
12847;DHT22;6492;48.128;8.320;2023-03-04T03:12:52;-3.80;72.30
12847;DHT22;6492;48.128;8.320;2023-03-04T03:16:55;-3.80;72.30
12847;DHT22;6492;48.128;8.320;2023-03-04T03:20:57;-3.70;72.60
12847;DHT22;6492;48.128;8.320;2023-03-04T03:24:59;-3.70;72.60
12847;DHT22;6492;48.128;8.320;2023-03-04T03:29:01;-3.80;72.50
12847;DHT22;6492;48.128;8.320;2023-03-04T03:33:04;-3.90;72.40
12847;DHT22;6492;48.128;8.320;2023-03-04T03:37:06;-3.90;72.30
12847;DHT22;6492;48.128;8.320;2023-03-04T03:41:07;-4.00;72.10
12847;DHT22;6492;48.128;8.320;2023-03-04T03:45:10;-4.00;72.10
12847;DHT22;6492;48.128;8.320;2023-03-04T03:49:13;-4.10;72.20
12847;DHT22;6492;48.128;8.320;2023-03-04T03:53:16;-4.10;72.20
12847;DHT22;6492;48.128;8.320;2023-03-04T03:57:18;-4.10;72.20
12847;DHT22;6492;48.128;8.320;2023-03-04T04:01:20;-4.00;72.40
12847;DHT22;6492;48.128;8.320;2023-03-04T04:05:23;-3.80;72.80
12847;DHT22;6492;48.128;8.320;2023-03-04T04:09:25;-3.60;73.20
12847;DHT22;6492;48.128;8.320;2023-03-04T04:13:26;-3.50;73.50
12847;DHT22;6492;48.128;8.320;2023-03-04T04:17:28;-3.50;74.30
12847;DHT22;6492;48.128;8.320;2023-03-04T04:21:31;-3.40;73.60
12847;DHT22;6492;48.128;8.320;2023-03-04T04:25:33;-3.60;73.40
12847;DHT22;6492;48.128;8.320;2023-03-04T04:29:35;-3.70;73.20
12847;DHT22;6492;48.128;8.320;2023-03-04T04:33:37;-3.90;72.90
12847;DHT22;6492;48.128;8.320;2023-03-04T04:37:40;-4.00;72.70
12847;DHT22;6492;48.128;8.320;2023-03-04T04:41:43;-4.00;72.70
12847;DHT22;6492;48.128;8.320;2023-03-04T04:45:45;-4.10;72.80
12847;DHT22;6492;48.128;8.320;2023-03-04T04:49:47;-4.00;72.90
12847;DHT22;6492;48.128;8.320;2023-03-04T04:53:50;-4.00;72.90
12847;DHT22;6492;48.128;8.320;2023-03-04T04:57:52;-4.10;72.90
12847;DHT22;6492;48.128;8.320;2023-03-04T05:01:53;-4.10;72.80
12847;DHT22;6492;48.128;8.320;2023-03-04T05:05:55;-4.20;72.70
12847;DHT22;6492;48.128;8.320;2023-03-04T05:09:59;-4.20;72.70
12847;DHT22;6492;48.128;8.320;2023-03-04T05:14:01;-4.20;72.80
12847;DHT22;6492;48.128;8.320;2023-03-04T05:18:02;-4.20;72.70
12847;DHT22;6492;48.128;8.320;2023-03-04T05:22:04;-4.20;72.80
12847;DHT22;6492;48.128;8.320;2023-03-04T05:26:09;-4.30;72.80
12847;DHT22;6492;48.128;8.320;2023-03-04T05:30:12;-4.30;72.80
12847;DHT22;6492;48.128;8.320;2023-03-04T05:34:14;-4.20;72.90
12847;DHT22;6492;48.128;8.320;2023-03-04T05:38:18;-4.10;73.10
12847;DHT22;6492;48.128;8.320;2023-03-04T05:42:21;-4.10;73.90
12847;DHT22;6492;48.128;8.320;2023-03-04T05:46:23;-4.20;72.90
12847;DHT22;6492;48.128;8.320;2023-03-04T05:50:30;-4.20;73.00
12847;DHT22;6492;48.128;8.320;2023-03-04T05:54:35;-4.20;73.10
12847;DHT22;6492;48.128;8.320;2023-03-04T05:58:38;-4.10;73.20
12847;DHT22;6492;48.128;8.320;2023-03-04T06:02:40;-4.00;73.30
12847;DHT22;6492;48.128;8.320;2023-03-04T06:06:42;-3.90;73.50
12847;DHT22;6492;48.128;8.320;2023-03-04T06:10:46;-3.90;73.50
12847;DHT22;6492;48.128;8.320;2023-03-04T06:14:49;-3.90;73.60
12847;DHT22;6492;48.128;8.320;2023-03-04T06:18:51;-3.90;73.60
12847;DHT22;6492;48.128;8.320;2023-03-04T06:22:53;-3.90;73.60
12847;DHT22;6492;48.128;8.320;2023-03-04T06:26:54;-3.90;73.60
12847;DHT22;6492;48.128;8.320;2023-03-04T06:30:57;-3.90;73.70
12847;DHT22;6492;48.128;8.320;2023-03-04T06:34:59;-3.90;73.60
12847;DHT22;6492;48.128;8.320;2023-03-04T06:39:01;-3.90;73.60
12847;DHT22;6492;48.128;8.320;2023-03-04T06:43:03;-3.90;73.70
12847;DHT22;6492;48.128;8.320;2023-03-04T06:47:06;-3.90;73.70
12847;DHT22;6492;48.128;8.320;2023-03-04T06:51:09;-3.80;73.70
12847;DHT22;6492;48.128;8.320;2023-03-04T06:55:11;-3.70;73.80
12847;DHT22;6492;48.128;8.320;2023-03-04T06:59:13;-3.50;74.00
12847;DHT22;6492;48.128;8.320;2023-03-04T07:03:18;-3.30;74.20
12847;DHT22;6492;48.128;8.320;2023-03-04T07:07:20;-3.10;74.40
12847;DHT22;6492;48.128;8.320;2023-03-04T07:11:23;-2.90;74.70
12847;DHT22;6492;48.128;8.320;2023-03-04T07:15:34;-2.90;74.70
12847;DHT22;6492;48.128;8.320;2023-03-04T07:19:37;-2.80;74.70
12847;DHT22;6492;48.128;8.320;2023-03-04T07:23:39;-2.70;74.80
12847;DHT22;6492;48.128;8.320;2023-03-04T07:27:41;-2.60;74.80
12847;DHT22;6492;48.128;8.320;2023-03-04T07:31:43;-2.40;74.90
12847;DHT22;6492;48.128;8.320;2023-03-04T07:35:46;-2.20;75.00
12847;DHT22;6492;48.128;8.320;2023-03-04T07:39:47;-2.00;75.10
12847;DHT22;6492;48.128;8.320;2023-03-04T07:43:50;-1.80;75.30
12847;DHT22;6492;48.128;8.320;2023-03-04T07:47:52;-1.70;75.50
12847;DHT22;6492;48.128;8.320;2023-03-04T07:51:55;-1.50;75.50
12847;DHT22;6492;48.128;8.320;2023-03-04T07:55:56;-1.40;75.60
12847;DHT22;6492;48.128;8.320;2023-03-04T07:59:58;-1.30;75.60
12847;DHT22;6492;48.128;8.320;2023-03-04T08:04:09;-1.10;75.60
12847;DHT22;6492;48.128;8.320;2023-03-04T08:08:12;-0.90;75.70
12847;DHT22;6492;48.128;8.320;2023-03-04T08:24:48;-0.30;76.10
12847;DHT22;6492;48.128;8.320;2023-03-04T08:28:51;-0.20;76.20
12847;DHT22;6492;48.128;8.320;2023-03-04T08:32:53;-0.10;76.30
12847;DHT22;6492;48.128;8.320;2023-03-04T08:37:01;0.10;76.30
12847;DHT22;6492;48.128;8.320;2023-03-04T08:41:05;0.30;76.30
12847;DHT22;6492;48.128;8.320;2023-03-04T08:45:09;0.60;76.40
12847;DHT22;6492;48.128;8.320;2023-03-04T08:49:14;0.80;76.90
12847;DHT22;6492;48.128;8.320;2023-03-04T08:53:18;0.90;77.60
12847;DHT22;6492;48.128;8.320;2023-03-04T08:57:22;1.00;77.70
12847;DHT22;6492;48.128;8.320;2023-03-04T09:01:29;1.20;77.80
12847;DHT22;6492;48.128;8.320;2023-03-04T09:05:31;1.30;76.70
12847;DHT22;6492;48.128;8.320;2023-03-04T09:09:33;1.50;74.20
12847;DHT22;6492;48.128;8.320;2023-03-04T09:13:38;1.70;66.00
12847;DHT22;6492;48.128;8.320;2023-03-04T09:17:43;1.90;56.80
12847;DHT22;6492;48.128;8.320;2023-03-04T09:21:45;2.00;54.90
12847;DHT22;6492;48.128;8.320;2023-03-04T09:25:48;2.30;52.20
12847;DHT22;6492;48.128;8.320;2023-03-04T09:29:53;2.40;45.20
12847;DHT22;6492;48.128;8.320;2023-03-04T09:33:58;2.60;46.90
12847;DHT22;6492;48.128;8.320;2023-03-04T09:38:00;2.80;45.80
12847;DHT22;6492;48.128;8.320;2023-03-04T09:42:03;3.10;37.10
12847;DHT22;6492;48.128;8.320;2023-03-04T09:46:16;3.30;36.00
12847;DHT22;6492;48.128;8.320;2023-03-04T09:50:20;3.70;29.80
12847;DHT22;6492;48.128;8.320;2023-03-04T09:54:35;4.00;27.50
12847;DHT22;6492;48.128;8.320;2023-03-04T09:58:46;4.40;28.10
12847;DHT22;6492;48.128;8.320;2023-03-04T10:03:14;4.70;24.30
12847;DHT22;6492;48.128;8.320;2023-03-04T10:07:20;5.00;21.40
12847;DHT22;6492;48.128;8.320;2023-03-04T10:11:26;5.20;20.00
12847;DHT22;6492;48.128;8.320;2023-03-04T10:15:34;5.40;17.60
12847;DHT22;6492;48.128;8.320;2023-03-04T10:19:47;5.60;17.70
12847;DHT22;6492;48.128;8.320;2023-03-04T10:23:51;5.80;16.40
12847;DHT22;6492;48.128;8.320;2023-03-04T10:27:57;6.10;13.90
12847;DHT22;6492;48.128;8.320;2023-03-04T10:32:01;6.10;13.20
12847;DHT22;6492;48.128;8.320;2023-03-04T10:36:18;6.20;11.30
12847;DHT22;6492;48.128;8.320;2023-03-04T10:40:24;6.40;10.90
12847;DHT22;6492;48.128;8.320;2023-03-04T10:44:27;6.40;10.00
12847;DHT22;6492;48.128;8.320;2023-03-04T10:48:31;6.60;9.60
12847;DHT22;6492;48.128;8.320;2023-03-04T10:52:38;6.70;9.30
12847;DHT22;6492;48.128;8.320;2023-03-04T10:56:42;7.10;8.20
12847;DHT22;6492;48.128;8.320;2023-03-04T11:01:04;7.20;7.00
12847;DHT22;6492;48.128;8.320;2023-03-04T11:05:16;7.50;6.20
12847;DHT22;6492;48.128;8.320;2023-03-04T11:09:24;7.50;7.90
12847;DHT22;6492;48.128;8.320;2023-03-04T11:13:26;7.90;5.40
12847;DHT22;6492;48.128;8.320;2023-03-04T11:17:40;8.10;5.20
12847;DHT22;6492;48.128;8.320;2023-03-04T11:21:42;8.00;2.60
12847;DHT22;6492;48.128;8.320;2023-03-04T11:25:51;8.00;1.00
12847;DHT22;6492;48.128;8.320;2023-03-04T11:29:59;8.10;1.00
12847;DHT22;6492;48.128;8.320;2023-03-04T11:34:07;8.10;1.00
12847;DHT22;6492;48.128;8.320;2023-03-04T11:38:16;8.40;1.00
12847;DHT22;6492;48.128;8.320;2023-03-04T11:42:32;8.50;1.00
12847;DHT22;6492;48.128;8.320;2023-03-04T11:46:49;8.60;1.00
12847;DHT22;6492;48.128;8.320;2023-03-04T11:50:57;8.80;1.00
12847;DHT22;6492;48.128;8.320;2023-03-04T11:55:24;9.00;1.00
12847;DHT22;6492;48.128;8.320;2023-03-04T11:59:37;9.00;1.00
12847;DHT22;6492;48.128;8.320;2023-03-04T12:04:00;8.90;1.00
12847;DHT22;6492;48.128;8.320;2023-03-04T12:08:20;9.10;1.00
12847;DHT22;6492;48.128;8.320;2023-03-04T12:12:34;9.40;1.00
12847;DHT22;6492;48.128;8.320;2023-03-04T12:21:30;9.10;1.00
12847;DHT22;6492;48.128;8.320;2023-03-04T12:25:42;9.10;1.00
12847;DHT22;6492;48.128;8.320;2023-03-04T12:29:50;9.30;1.00
12847;DHT22;6492;48.128;8.320;2023-03-04T12:34:29;9.20;1.00
12847;DHT22;6492;48.128;8.320;2023-03-04T12:38:45;9.20;1.00
12847;DHT22;6492;48.128;8.320;2023-03-04T12:42:57;9.10;1.00
12847;DHT22;6492;48.128;8.320;2023-03-04T12:47:23;9.10;1.00
12847;DHT22;6492;48.128;8.320;2023-03-04T12:51:33;8.80;1.00
12847;DHT22;6492;48.128;8.320;2023-03-04T12:55:41;8.70;1.00
12847;DHT22;6492;48.128;8.320;2023-03-04T12:59:46;8.70;1.00
12847;DHT22;6492;48.128;8.320;2023-03-04T13:03:56;8.90;1.00
12847;DHT22;6492;48.128;8.320;2023-03-04T13:08:07;8.80;1.00
12847;DHT22;6492;48.128;8.320;2023-03-04T13:12:16;8.80;1.00
12847;DHT22;6492;48.128;8.320;2023-03-04T13:16:29;8.90;1.00
12847;DHT22;6492;48.128;8.320;2023-03-04T13:20:35;8.80;1.00
12847;DHT22;6492;48.128;8.320;2023-03-04T13:24:45;8.80;1.00
12847;DHT22;6492;48.128;8.320;2023-03-04T13:29:10;8.60;1.00
12847;DHT22;6492;48.128;8.320;2023-03-04T13:38:22;8.70;1.00
12847;DHT22;6492;48.128;8.320;2023-03-04T13:42:41;8.90;1.00
12847;DHT22;6492;48.128;8.320;2023-03-04T13:46:44;8.80;1.00
12847;DHT22;6492;48.128;8.320;2023-03-04T13:50:48;8.80;1.00
12847;DHT22;6492;48.128;8.320;2023-03-04T13:54:50;8.80;1.00
12847;DHT22;6492;48.128;8.320;2023-03-04T14:03:34;8.80;1.00
12847;DHT22;6492;48.128;8.320;2023-03-04T14:07:38;9.00;1.00
12847;DHT22;6492;48.128;8.320;2023-03-04T14:11:40;8.90;1.00
12847;DHT22;6492;48.128;8.320;2023-03-04T14:15:55;8.80;1.00
12847;DHT22;6492;48.128;8.320;2023-03-04T14:19:59;8.70;1.00
12847;DHT22;6492;48.128;8.320;2023-03-04T14:24:17;8.70;1.00
12847;DHT22;6492;48.128;8.320;2023-03-04T14:28:26;8.50;1.00
12847;DHT22;6492;48.128;8.320;2023-03-04T14:32:33;8.30;1.00
12847;DHT22;6492;48.128;8.320;2023-03-04T14:36:36;8.30;1.00
12847;DHT22;6492;48.128;8.320;2023-03-04T14:40:40;8.50;1.00
12847;DHT22;6492;48.128;8.320;2023-03-04T14:44:46;8.30;1.00
12847;DHT22;6492;48.128;8.320;2023-03-04T14:48:50;8.00;1.00
12847;DHT22;6492;48.128;8.320;2023-03-04T14:53:21;7.90;1.00
12847;DHT22;6492;48.128;8.320;2023-03-04T14:57:32;7.60;1.00
12847;DHT22;6492;48.128;8.320;2023-03-04T15:01:36;7.50;1.00
12847;DHT22;6492;48.128;8.320;2023-03-04T15:05:39;7.20;1.00
12847;DHT22;6492;48.128;8.320;2023-03-04T15:09:49;7.10;2.00
12847;DHT22;6492;48.128;8.320;2023-03-04T15:13:53;7.10;1.90
12847;DHT22;6492;48.128;8.320;2023-03-04T15:18:03;7.00;1.90
12847;DHT22;6492;48.128;8.320;2023-03-04T15:22:06;6.80;2.30
12847;DHT22;6492;48.128;8.320;2023-03-04T15:26:11;6.60;3.40
12847;DHT22;6492;48.128;8.320;2023-03-04T15:30:15;6.50;3.60
12847;DHT22;6492;48.128;8.320;2023-03-04T15:34:19;6.40;3.90
12847;DHT22;6492;48.128;8.320;2023-03-04T15:38:22;6.30;4.40
12847;DHT22;6492;48.128;8.320;2023-03-04T15:42:25;6.00;4.90
12847;DHT22;6492;48.128;8.320;2023-03-04T15:46:39;5.80;5.70
12847;DHT22;6492;48.128;8.320;2023-03-04T15:50:43;5.50;6.30
12847;DHT22;6492;48.128;8.320;2023-03-04T15:54:46;5.20;7.20
12847;DHT22;6492;48.128;8.320;2023-03-04T15:59:05;5.00;7.80
12847;DHT22;6492;48.128;8.320;2023-03-04T16:03:14;4.80;8.70
12847;DHT22;6492;48.128;8.320;2023-03-04T16:07:51;4.60;8.90
12847;DHT22;6492;48.128;8.320;2023-03-04T16:11:53;4.30;8.60
12847;DHT22;6492;48.128;8.320;2023-03-04T16:15:57;4.10;8.90
12847;DHT22;6492;48.128;8.320;2023-03-04T16:19:59;3.90;8.90
12847;DHT22;6492;48.128;8.320;2023-03-04T16:24:05;3.70;8.50
12847;DHT22;6492;48.128;8.320;2023-03-04T16:28:11;3.40;9.40
12847;DHT22;6492;48.128;8.320;2023-03-04T16:32:15;3.20;8.70
12847;DHT22;6492;48.128;8.320;2023-03-04T16:36:19;3.00;9.00
12847;DHT22;6492;48.128;8.320;2023-03-04T16:40:25;2.80;9.50
12847;DHT22;6492;48.128;8.320;2023-03-04T16:44:27;2.60;9.60
12847;DHT22;6492;48.128;8.320;2023-03-04T16:48:34;2.40;9.70
12847;DHT22;6492;48.128;8.320;2023-03-04T16:52:35;2.20;9.90
12847;DHT22;6492;48.128;8.320;2023-03-04T16:56:37;1.90;10.60
12847;DHT22;6492;48.128;8.320;2023-03-04T17:00:39;1.70;11.40
12847;DHT22;6492;48.128;8.320;2023-03-04T17:04:54;1.50;12.20
12847;DHT22;6492;48.128;8.320;2023-03-04T17:08:58;1.30;13.20
12847;DHT22;6492;48.128;8.320;2023-03-04T17:13:07;1.00;14.40
12847;DHT22;6492;48.128;8.320;2023-03-04T17:17:09;0.70;14.70
12847;DHT22;6492;48.128;8.320;2023-03-04T17:21:14;0.50;15.30
12847;DHT22;6492;48.128;8.320;2023-03-04T17:25:18;0.30;16.30
12847;DHT22;6492;48.128;8.320;2023-03-04T17:29:19;0.00;17.90
12847;DHT22;6492;48.128;8.320;2023-03-04T17:33:21;-0.30;19.80
12847;DHT22;6492;48.128;8.320;2023-03-04T17:37:25;-0.60;23.00
12847;DHT22;6492;48.128;8.320;2023-03-04T17:41:27;-0.70;25.30
12847;DHT22;6492;48.128;8.320;2023-03-04T17:45:28;-0.90;27.60
12847;DHT22;6492;48.128;8.320;2023-03-04T17:49:30;-1.00;29.20
12847;DHT22;6492;48.128;8.320;2023-03-04T17:53:35;-1.20;30.90
12847;DHT22;6492;48.128;8.320;2023-03-04T17:57:37;-1.30;32.10
12847;DHT22;6492;48.128;8.320;2023-03-04T18:01:39;-1.50;33.70
12847;DHT22;6492;48.128;8.320;2023-03-04T18:05:41;-1.70;33.80
12847;DHT22;6492;48.128;8.320;2023-03-04T18:09:44;-1.90;34.80
12847;DHT22;6492;48.128;8.320;2023-03-04T18:13:47;-2.10;35.60
12847;DHT22;6492;48.128;8.320;2023-03-04T18:17:49;-2.30;35.40
12847;DHT22;6492;48.128;8.320;2023-03-04T18:21:52;-2.50;36.10
12847;DHT22;6492;48.128;8.320;2023-03-04T18:25:55;-2.50;38.00
12847;DHT22;6492;48.128;8.320;2023-03-04T18:29:57;-2.70;38.40
12847;DHT22;6492;48.128;8.320;2023-03-04T18:34:00;-2.80;39.10
12847;DHT22;6492;48.128;8.320;2023-03-04T18:38:02;-2.90;41.30
12847;DHT22;6492;48.128;8.320;2023-03-04T18:42:06;-3.00;41.20
12847;DHT22;6492;48.128;8.320;2023-03-04T18:46:10;-3.10;42.90
12847;DHT22;6492;48.128;8.320;2023-03-04T18:50:16;-3.20;45.30
12847;DHT22;6492;48.128;8.320;2023-03-04T18:54:18;-3.20;45.60
12847;DHT22;6492;48.128;8.320;2023-03-04T18:58:21;-3.30;46.00
12847;DHT22;6492;48.128;8.320;2023-03-04T19:02:26;-3.30;47.30
12847;DHT22;6492;48.128;8.320;2023-03-04T19:06:31;-3.20;48.00
12847;DHT22;6492;48.128;8.320;2023-03-04T19:10:33;-3.10;49.40
12847;DHT22;6492;48.128;8.320;2023-03-04T19:14:37;-2.90;49.80
12847;DHT22;6492;48.128;8.320;2023-03-04T19:18:44;-2.70;50.10
12847;DHT22;6492;48.128;8.320;2023-03-04T19:22:46;-2.50;49.90
12847;DHT22;6492;48.128;8.320;2023-03-04T19:26:48;-2.40;49.20
12847;DHT22;6492;48.128;8.320;2023-03-04T19:30:51;-2.30;48.70
12847;DHT22;6492;48.128;8.320;2023-03-04T19:34:56;-2.20;48.10
12847;DHT22;6492;48.128;8.320;2023-03-04T19:38:58;-2.10;47.30
12847;DHT22;6492;48.128;8.320;2023-03-04T19:43:00;-2.10;46.60
12847;DHT22;6492;48.128;8.320;2023-03-04T19:47:03;-2.00;46.40
12847;DHT22;6492;48.128;8.320;2023-03-04T19:51:13;-2.00;45.60
12847;DHT22;6492;48.128;8.320;2023-03-04T19:55:16;-2.00;45.40
12847;DHT22;6492;48.128;8.320;2023-03-04T19:59:17;-1.90;45.10
12847;DHT22;6492;48.128;8.320;2023-03-04T20:03:21;-1.90;44.50
12847;DHT22;6492;48.128;8.320;2023-03-04T20:07:23;-1.90;44.20
12847;DHT22;6492;48.128;8.320;2023-03-04T20:11:25;-1.80;44.30
12847;DHT22;6492;48.128;8.320;2023-03-04T20:15:27;-1.80;44.10
12847;DHT22;6492;48.128;8.320;2023-03-04T20:19:31;-1.80;43.80
12847;DHT22;6492;48.128;8.320;2023-03-04T20:23:34;-1.80;43.40
12847;DHT22;6492;48.128;8.320;2023-03-04T20:27:35;-1.80;43.10
12847;DHT22;6492;48.128;8.320;2023-03-04T20:31:37;-1.90;42.00
12847;DHT22;6492;48.128;8.320;2023-03-04T20:35:40;-1.90;42.00
12847;DHT22;6492;48.128;8.320;2023-03-04T20:39:42;-1.90;42.10
12847;DHT22;6492;48.128;8.320;2023-03-04T20:43:44;-2.00;41.50
12847;DHT22;6492;48.128;8.320;2023-03-04T20:47:46;-2.00;41.10
12847;DHT22;6492;48.128;8.320;2023-03-04T20:51:51;-2.00;40.60
12847;DHT22;6492;48.128;8.320;2023-03-04T20:55:53;-2.00;40.90
12847;DHT22;6492;48.128;8.320;2023-03-04T20:59:55;-2.00;40.00
12847;DHT22;6492;48.128;8.320;2023-03-04T21:03:57;-2.10;39.60
12847;DHT22;6492;48.128;8.320;2023-03-04T21:08:00;-2.10;39.50
12847;DHT22;6492;48.128;8.320;2023-03-04T21:12:02;-2.10;39.70
12847;DHT22;6492;48.128;8.320;2023-03-04T21:16:04;-2.10;39.60
12847;DHT22;6492;48.128;8.320;2023-03-04T21:20:08;-2.10;39.30
12847;DHT22;6492;48.128;8.320;2023-03-04T21:24:14;-2.20;39.20
12847;DHT22;6492;48.128;8.320;2023-03-04T21:28:16;-2.20;38.50
12847;DHT22;6492;48.128;8.320;2023-03-04T21:32:23;-2.20;38.10
12847;DHT22;6492;48.128;8.320;2023-03-04T21:36:25;-2.20;37.90
12847;DHT22;6492;48.128;8.320;2023-03-04T21:40:29;-2.30;38.70
12847;DHT22;6492;48.128;8.320;2023-03-04T21:44:36;-2.40;38.00
12847;DHT22;6492;48.128;8.320;2023-03-04T21:48:38;-2.40;38.40
12847;DHT22;6492;48.128;8.320;2023-03-04T21:52:46;-2.50;38.30
12847;DHT22;6492;48.128;8.320;2023-03-04T21:56:58;-2.60;38.20
12847;DHT22;6492;48.128;8.320;2023-03-04T22:01:08;-2.70;38.20
12847;DHT22;6492;48.128;8.320;2023-03-04T22:05:17;-2.80;38.80
12847;DHT22;6492;48.128;8.320;2023-03-04T22:09:19;-2.90;39.50
12847;DHT22;6492;48.128;8.320;2023-03-04T22:13:24;-2.90;39.60
12847;DHT22;6492;48.128;8.320;2023-03-04T22:17:26;-3.00;39.90
12847;DHT22;6492;48.128;8.320;2023-03-04T22:21:27;-3.10;40.40
12847;DHT22;6492;48.128;8.320;2023-03-04T22:25:30;-3.10;41.30
12847;DHT22;6492;48.128;8.320;2023-03-04T22:29:36;-3.10;42.20
12847;DHT22;6492;48.128;8.320;2023-03-04T22:33:37;-3.10;42.30
12847;DHT22;6492;48.128;8.320;2023-03-04T22:37:39;-3.10;43.30
12847;DHT22;6492;48.128;8.320;2023-03-04T22:41:41;-3.00;43.50
12847;DHT22;6492;48.128;8.320;2023-03-04T22:45:45;-3.00;43.60
12847;DHT22;6492;48.128;8.320;2023-03-04T22:49:47;-2.90;43.60
12847;DHT22;6492;48.128;8.320;2023-03-04T22:53:49;-2.90;43.70
12847;DHT22;6492;48.128;8.320;2023-03-04T22:58:00;-2.90;43.80
12847;DHT22;6492;48.128;8.320;2023-03-04T23:02:03;-2.90;43.20
12847;DHT22;6492;48.128;8.320;2023-03-04T23:06:08;-2.90;43.10
12847;DHT22;6492;48.128;8.320;2023-03-04T23:10:14;-2.80;43.50
12847;DHT22;6492;48.128;8.320;2023-03-04T23:14:16;-2.80;43.70
12847;DHT22;6492;48.128;8.320;2023-03-04T23:18:19;-2.70;43.70
12847;DHT22;6492;48.128;8.320;2023-03-04T23:22:21;-2.70;43.30
12847;DHT22;6492;48.128;8.320;2023-03-04T23:26:25;-2.70;43.20
12847;DHT22;6492;48.128;8.320;2023-03-04T23:30:27;-2.70;43.00
12847;DHT22;6492;48.128;8.320;2023-03-04T23:34:30;-2.80;42.20
12847;DHT22;6492;48.128;8.320;2023-03-04T23:38:32;-2.90;42.30
12847;DHT22;6492;48.128;8.320;2023-03-04T23:42:33;-3.10;42.30
12847;DHT22;6492;48.128;8.320;2023-03-04T23:46:35;-3.30;42.90
12847;DHT22;6492;48.128;8.320;2023-03-04T23:50:39;-3.40;44.40
12847;DHT22;6492;48.128;8.320;2023-03-04T23:54:41;-3.50;45.70
12847;DHT22;6492;48.128;8.320;2023-03-04T23:58:43;-3.70;46.70
